createdAt,value
2023-05-22T00:00:21.116Z,1015.733
2023-05-22T00:00:51.056Z,1015.733
2023-05-22T00:01:21.086Z,1015.733
2023-05-22T00:01:51.083Z,1015.736
2023-05-22T00:02:21.077Z,1015.741
2023-05-22T00:02:51.234Z,1015.73
2023-05-22T00:03:21.079Z,1015.728
2023-05-22T00:03:51.072Z,1015.73
2023-05-22T00:04:21.081Z,1015.726
2023-05-22T00:04:51.075Z,1015.735
2023-05-22T00:05:21.095Z,1015.75
2023-05-22T00:05:51.064Z,1015.751
2023-05-22T00:06:21.066Z,1015.75
2023-05-22T00:06:51.057Z,1015.741
2023-05-22T00:07:21.054Z,1015.735
2023-05-22T00:07:51.056Z,1015.726
2023-05-22T00:08:21.070Z,1015.716
2023-05-22T00:08:51.062Z,1015.719
2023-05-22T00:09:21.065Z,1015.723
2023-05-22T00:09:51.060Z,1015.718
2023-05-22T00:10:21.052Z,1015.731
2023-05-22T00:10:51.056Z,1015.734
2023-05-22T00:11:21.068Z,1015.739
2023-05-22T00:11:51.057Z,1015.747
2023-05-22T00:12:21.056Z,1015.755
2023-05-22T00:12:51.063Z,1015.772
2023-05-22T00:13:21.059Z,1015.789
2023-05-22T00:13:51.055Z,1015.792
2023-05-22T00:14:21.070Z,1015.799
2023-05-22T00:14:51.096Z,1015.8
2023-05-22T00:15:21.055Z,1015.795
2023-05-22T00:15:51.057Z,1015.785
2023-05-22T00:16:21.137Z,1015.795
2023-05-22T00:16:51.113Z,1015.792
2023-05-22T00:17:21.127Z,1015.782
2023-05-22T00:17:51.070Z,1015.784
2023-05-22T00:18:21.071Z,1015.783
2023-05-22T00:18:51.117Z,1015.778
2023-05-22T00:19:21.104Z,1015.772
2023-05-22T00:19:51.060Z,1015.771
2023-05-22T00:20:21.084Z,1015.772
2023-05-22T00:20:51.066Z,1015.773
2023-05-22T00:21:21.064Z,1015.773
2023-05-22T00:21:51.075Z,1015.778
2023-05-22T00:22:21.089Z,1015.787
2023-05-22T00:22:51.060Z,1015.79
2023-05-22T00:23:21.062Z,1015.793
2023-05-22T00:23:51.059Z,1015.81
2023-05-22T00:24:21.095Z,1015.82
2023-05-22T00:24:51.066Z,1015.819
2023-05-22T00:25:21.091Z,1015.821
2023-05-22T00:25:51.058Z,1015.832
2023-05-22T00:26:21.079Z,1015.845
2023-05-22T00:26:51.065Z,1015.844
2023-05-22T00:27:21.072Z,1015.856
2023-05-22T00:27:51.064Z,1015.868
2023-05-22T00:28:21.071Z,1015.89
2023-05-22T00:28:51.073Z,1015.907
2023-05-22T00:29:21.098Z,1015.923
2023-05-22T00:29:51.068Z,1015.917
2023-05-22T00:30:21.068Z,1015.919
2023-05-22T00:30:51.065Z,1015.91
2023-05-22T00:31:21.065Z,1015.916
2023-05-22T00:31:51.069Z,1015.911
2023-05-22T00:32:21.087Z,1015.912
2023-05-22T00:32:51.081Z,1015.915
2023-05-22T00:33:21.069Z,1015.925
2023-05-22T00:33:51.143Z,1015.93
2023-05-22T00:34:21.122Z,1015.931
2023-05-22T00:34:51.116Z,1015.944
2023-05-22T00:35:21.074Z,1015.932
2023-05-22T00:35:51.078Z,1015.927
2023-05-22T00:36:21.073Z,1015.924
2023-05-22T00:36:51.068Z,1015.928
2023-05-22T00:37:21.078Z,1015.942
2023-05-22T00:37:51.069Z,1015.954
2023-05-22T00:38:21.064Z,1015.963
2023-05-22T00:38:51.075Z,1015.976
2023-05-22T00:39:21.073Z,1015.984
2023-05-22T00:39:51.071Z,1015.989
2023-05-22T00:40:21.081Z,1015.977
2023-05-22T00:40:51.077Z,1015.983
2023-05-22T00:41:21.067Z,1015.987
2023-05-22T00:41:51.071Z,1016.003
2023-05-22T00:42:21.098Z,1016.015
2023-05-22T00:42:51.070Z,1016.03
2023-05-22T00:43:21.077Z,1016.046
2023-05-22T00:43:51.146Z,1016.05
2023-05-22T00:44:21.073Z,1016.049
2023-05-22T00:44:51.079Z,1016.059
2023-05-22T00:45:21.074Z,1016.058
2023-05-22T00:45:51.069Z,1016.072
2023-05-22T00:46:21.114Z,1016.07
2023-05-22T00:46:51.115Z,1016.069
2023-05-22T00:47:21.081Z,1016.067
2023-05-22T00:47:51.109Z,1016.064
2023-05-22T00:48:21.091Z,1016.054
2023-05-22T00:48:51.070Z,1016.05
2023-05-22T00:49:21.095Z,1016.051
2023-05-22T00:49:51.071Z,1016.043
2023-05-22T00:50:21.071Z,1016.042
2023-05-22T00:50:51.096Z,1016.044
2023-05-22T00:51:21.088Z,1016.045
2023-05-22T00:51:51.071Z,1016.041
2023-05-22T00:52:21.077Z,1016.038
2023-05-22T00:52:51.076Z,1016.034
2023-05-22T00:53:21.084Z,1016.028
2023-05-22T00:53:51.087Z,1016.018
2023-05-22T00:54:21.083Z,1016.006
2023-05-22T00:54:51.087Z,1016.008
2023-05-22T00:55:21.080Z,1016.005
2023-05-22T00:55:51.082Z,1016.004
2023-05-22T00:56:21.096Z,1016.002
2023-05-22T00:56:51.070Z,1016.015
2023-05-22T00:57:21.087Z,1016.015
2023-05-22T00:57:51.072Z,1016.023
2023-05-22T00:58:21.090Z,1016.028
2023-05-22T00:58:51.081Z,1016.033
2023-05-22T00:59:21.096Z,1016.044
2023-05-22T00:59:51.087Z,1016.044
2023-05-22T01:00:21.086Z,1016.044
2023-05-22T01:00:51.080Z,1016.054
2023-05-22T01:01:21.104Z,1016.052
2023-05-22T01:01:51.172Z,1016.053
2023-05-22T01:02:21.113Z,1016.056
2023-05-22T01:02:51.129Z,1016.065
2023-05-22T01:03:21.223Z,1016.061
2023-05-22T01:03:51.137Z,1016.065
2023-05-22T01:04:21.074Z,1016.059
2023-05-22T01:04:51.085Z,1016.065
2023-05-22T01:05:21.077Z,1016.068
2023-05-22T01:05:51.079Z,1016.06
2023-05-22T01:06:21.088Z,1016.068
2023-05-22T01:06:51.077Z,1016.076
2023-05-22T01:07:21.077Z,1016.09
2023-05-22T01:07:51.076Z,1016.076
2023-05-22T01:08:21.079Z,1016.076
2023-05-22T01:08:51.082Z,1016.079
2023-05-22T01:09:21.085Z,1016.085
2023-05-22T01:09:51.077Z,1016.093
2023-05-22T01:10:21.097Z,1016.092
2023-05-22T01:10:51.075Z,1016.085
2023-05-22T01:11:21.079Z,1016.103
2023-05-22T01:11:51.079Z,1016.102
2023-05-22T01:12:21.080Z,1016.116
2023-05-22T01:12:51.077Z,1016.124
2023-05-22T01:13:21.088Z,1016.134
2023-05-22T01:13:51.078Z,1016.136
2023-05-22T01:14:21.080Z,1016.137
2023-05-22T01:14:51.079Z,1016.132
2023-05-22T01:15:21.079Z,1016.129
2023-05-22T01:15:51.095Z,1016.122
2023-05-22T01:16:21.115Z,1016.116
2023-05-22T01:16:51.081Z,1016.111
2023-05-22T01:17:21.089Z,1016.1
2023-05-22T01:17:51.130Z,1016.086
2023-05-22T01:18:21.094Z,1016.072
2023-05-22T01:18:51.112Z,1016.07
2023-05-22T01:19:21.187Z,1016.059
2023-05-22T01:19:51.082Z,1016.062
2023-05-22T01:20:21.084Z,1016.067
2023-05-22T01:20:51.083Z,1016.081
2023-05-22T01:21:21.084Z,1016.085
2023-05-22T01:21:51.084Z,1016.091
2023-05-22T01:22:21.090Z,1016.087
2023-05-22T01:22:51.087Z,1016.081
2023-05-22T01:23:21.077Z,1016.088
2023-05-22T01:23:51.082Z,1016.099
2023-05-22T01:24:21.082Z,1016.104
2023-05-22T01:24:51.094Z,1016.1
2023-05-22T01:25:21.085Z,1016.108
2023-05-22T01:25:51.088Z,1016.107
2023-05-22T01:26:21.081Z,1016.118
2023-05-22T01:26:51.084Z,1016.117
2023-05-22T01:27:21.093Z,1016.118
2023-05-22T01:27:51.089Z,1016.114
2023-05-22T01:28:21.085Z,1016.122
2023-05-22T01:28:51.083Z,1016.128
2023-05-22T01:29:21.087Z,1016.128
2023-05-22T01:29:51.102Z,1016.121
2023-05-22T01:30:21.110Z,1016.112
2023-05-22T01:30:51.081Z,1016.109
2023-05-22T01:31:21.078Z,1016.11
2023-05-22T01:31:51.086Z,1016.104
2023-05-22T01:32:21.082Z,1016.095
2023-05-22T01:32:51.135Z,1016.09
2023-05-22T01:33:21.179Z,1016.087
2023-05-22T01:33:51.186Z,1016.075
2023-05-22T01:34:21.077Z,1016.06
2023-05-22T01:34:51.086Z,1016.066
2023-05-22T01:35:21.084Z,1016.058
2023-05-22T01:35:51.094Z,1016.05
2023-05-22T01:36:21.083Z,1016.035
2023-05-22T01:36:51.086Z,1016.039
2023-05-22T01:37:21.082Z,1016.029
2023-05-22T01:37:51.087Z,1016.024
2023-05-22T01:38:21.086Z,1016.025
2023-05-22T01:38:51.084Z,1016.024
2023-05-22T01:39:21.088Z,1016.008
2023-05-22T01:39:51.092Z,1015.993
2023-05-22T01:40:21.110Z,1015.995
2023-05-22T01:40:51.098Z,1015.997
2023-05-22T01:41:21.085Z,1016.001
2023-05-22T01:41:51.085Z,1016.008
2023-05-22T01:42:21.093Z,1016.006
2023-05-22T01:42:51.087Z,1016.019
2023-05-22T01:43:21.093Z,1016.034
2023-05-22T01:43:51.089Z,1016.039
2023-05-22T01:44:21.098Z,1016.035
2023-05-22T01:44:51.090Z,1016.02
2023-05-22T01:45:21.114Z,1016.021
2023-05-22T01:45:51.138Z,1016.018
2023-05-22T01:46:21.205Z,1016.032
2023-05-22T01:46:51.084Z,1016.052
2023-05-22T01:47:21.172Z,1016.054
2023-05-22T01:47:51.169Z,1016.055
2023-05-22T01:48:21.091Z,1016.058
2023-05-22T01:48:51.092Z,1016.07
2023-05-22T01:49:21.093Z,1016.074
2023-05-22T01:49:51.093Z,1016.081
2023-05-22T01:50:21.211Z,1016.089
2023-05-22T01:50:51.106Z,1016.097
2023-05-22T01:51:21.091Z,1016.104
2023-05-22T01:51:51.095Z,1016.114
2023-05-22T01:52:21.101Z,1016.114
2023-05-22T01:52:51.095Z,1016.107
2023-05-22T01:53:21.092Z,1016.097
2023-05-22T01:53:51.097Z,1016.089
2023-05-22T01:54:21.108Z,1016.075
2023-05-22T01:54:51.093Z,1016.07
2023-05-22T01:55:21.101Z,1016.067
2023-05-22T01:55:51.107Z,1016.072
2023-05-22T01:56:21.128Z,1016.071
2023-05-22T01:56:51.099Z,1016.08
2023-05-22T01:57:21.094Z,1016.094
2023-05-22T01:57:51.092Z,1016.108
2023-05-22T01:58:21.091Z,1016.117
2023-05-22T01:58:51.093Z,1016.115
2023-05-22T01:59:21.110Z,1016.121
2023-05-22T01:59:51.107Z,1016.124
2023-05-22T02:00:21.106Z,1016.102
2023-05-22T02:00:51.157Z,1016.093
2023-05-22T02:01:21.169Z,1016.092
2023-05-22T02:01:51.367Z,1016.103
2023-05-22T02:02:21.190Z,1016.115
2023-05-22T02:02:51.145Z,1016.12
2023-05-22T02:03:21.212Z,1016.118
2023-05-22T02:03:51.097Z,1016.11
2023-05-22T02:04:21.094Z,1016.108
2023-05-22T02:04:51.094Z,1016.104
2023-05-22T02:05:21.132Z,1016.103
2023-05-22T02:05:51.094Z,1016.113
2023-05-22T02:06:21.105Z,1016.114
2023-05-22T02:06:51.099Z,1016.115
2023-05-22T02:07:21.101Z,1016.115
2023-05-22T02:07:51.097Z,1016.106
2023-05-22T02:08:21.106Z,1016.106
2023-05-22T02:08:51.096Z,1016.097
2023-05-22T02:09:21.100Z,1016.104
2023-05-22T02:09:51.103Z,1016.113
2023-05-22T02:10:21.106Z,1016.113
2023-05-22T02:10:51.106Z,1016.122
2023-05-22T02:11:21.098Z,1016.135
2023-05-22T02:11:51.101Z,1016.137
2023-05-22T02:12:21.124Z,1016.145
2023-05-22T02:12:51.103Z,1016.154
2023-05-22T02:13:21.126Z,1016.158
2023-05-22T02:13:51.098Z,1016.157
2023-05-22T02:14:21.105Z,1016.165
2023-05-22T02:14:51.105Z,1016.167
2023-05-22T02:15:21.096Z,1016.172
2023-05-22T02:15:51.197Z,1016.17
2023-05-22T02:16:21.119Z,1016.16
2023-05-22T02:16:51.102Z,1016.142
2023-05-22T02:17:21.095Z,1016.139
2023-05-22T02:17:51.141Z,1016.135
2023-05-22T02:18:21.121Z,1016.131
2023-05-22T02:18:51.147Z,1016.122
2023-05-22T02:19:21.137Z,1016.122
2023-05-22T02:19:51.105Z,1016.129
2023-05-22T02:20:21.105Z,1016.128
2023-05-22T02:20:51.097Z,1016.121
2023-05-22T02:21:21.105Z,1016.121
2023-05-22T02:21:51.100Z,1016.108
2023-05-22T02:22:21.118Z,1016.099
2023-05-22T02:22:51.118Z,1016.098
2023-05-22T02:23:21.099Z,1016.1
2023-05-22T02:23:51.104Z,1016.103
2023-05-22T02:24:21.114Z,1016.095
2023-05-22T02:24:51.108Z,1016.094
2023-05-22T02:25:21.113Z,1016.089
2023-05-22T02:25:51.106Z,1016.083
2023-05-22T02:26:21.102Z,1016.099
2023-05-22T02:26:51.103Z,1016.101
2023-05-22T02:27:21.105Z,1016.094
2023-05-22T02:27:51.104Z,1016.087
2023-05-22T02:28:21.098Z,1016.096
2023-05-22T02:28:51.133Z,1016.11
2023-05-22T02:29:21.104Z,1016.112
2023-05-22T02:29:51.103Z,1016.107
2023-05-22T02:30:21.113Z,1016.099
2023-05-22T02:30:51.140Z,1016.101
2023-05-22T02:31:21.191Z,1016.095
2023-05-22T02:31:51.110Z,1016.104
2023-05-22T02:32:21.119Z,1016.09
2023-05-22T02:32:51.127Z,1016.09
2023-05-22T02:33:21.102Z,1016.085
2023-05-22T02:33:51.106Z,1016.085
2023-05-22T02:34:21.142Z,1016.09
2023-05-22T02:34:52.881Z,1016.094
2023-05-22T02:35:22.231Z,1016.088
2023-05-22T02:35:51.104Z,1016.088
2023-05-22T02:36:21.121Z,1016.095
2023-05-22T02:36:51.118Z,1016.106
2023-05-22T02:37:21.103Z,1016.116
2023-05-22T02:37:51.104Z,1016.124
2023-05-22T02:38:21.118Z,1016.128
2023-05-22T02:38:51.108Z,1016.122
2023-05-22T02:39:21.109Z,1016.133
2023-05-22T02:39:51.114Z,1016.138
2023-05-22T02:40:21.120Z,1016.147
2023-05-22T02:40:51.125Z,1016.154
2023-05-22T02:41:21.131Z,1016.163
2023-05-22T02:41:51.130Z,1016.175
2023-05-22T02:42:21.115Z,1016.164
2023-05-22T02:42:51.110Z,1016.172
2023-05-22T02:43:21.113Z,1016.194
2023-05-22T02:43:51.121Z,1016.211
2023-05-22T02:44:21.121Z,1016.227
2023-05-22T02:44:51.111Z,1016.251
2023-05-22T02:45:21.124Z,1016.258
2023-05-22T02:45:51.115Z,1016.273
2023-05-22T02:46:21.143Z,1016.283
2023-05-22T02:46:51.127Z,1016.293
2023-05-22T02:47:21.114Z,1016.299
2023-05-22T02:47:51.129Z,1016.299
2023-05-22T02:48:21.109Z,1016.294
2023-05-22T02:48:51.106Z,1016.296
2023-05-22T02:49:21.115Z,1016.294
2023-05-22T02:49:51.105Z,1016.293
2023-05-22T02:50:21.108Z,1016.286
2023-05-22T02:50:51.114Z,1016.277
2023-05-22T02:51:21.104Z,1016.282
2023-05-22T02:51:51.110Z,1016.286
2023-05-22T02:52:21.111Z,1016.293
2023-05-22T02:52:51.114Z,1016.287
2023-05-22T02:53:21.109Z,1016.28
2023-05-22T02:53:51.111Z,1016.27
2023-05-22T02:54:21.109Z,1016.262
2023-05-22T02:54:51.119Z,1016.258
2023-05-22T02:55:21.121Z,1016.261
2023-05-22T02:55:51.108Z,1016.253
2023-05-22T02:56:21.200Z,1016.255
2023-05-22T02:56:51.116Z,1016.262
2023-05-22T02:57:21.112Z,1016.253
2023-05-22T02:57:51.106Z,1016.258
2023-05-22T02:58:21.111Z,1016.272
2023-05-22T02:58:51.106Z,1016.286
2023-05-22T02:59:21.106Z,1016.292
2023-05-22T02:59:51.122Z,1016.293
2023-05-22T03:00:21.113Z,1016.302
2023-05-22T03:00:51.108Z,1016.294
2023-05-22T03:01:21.129Z,1016.307
2023-05-22T03:01:51.154Z,1016.304
2023-05-22T03:02:21.118Z,1016.301
2023-05-22T03:02:51.188Z,1016.295
2023-05-22T03:03:21.223Z,1016.295
2023-05-22T03:03:51.182Z,1016.294
2023-05-22T03:04:21.114Z,1016.288
2023-05-22T03:04:51.113Z,1016.286
2023-05-22T03:05:21.110Z,1016.28
2023-05-22T03:05:51.113Z,1016.273
2023-05-22T03:06:21.106Z,1016.269
2023-05-22T03:06:51.118Z,1016.263
2023-05-22T03:07:21.127Z,1016.254
2023-05-22T03:07:51.116Z,1016.235
2023-05-22T03:08:21.122Z,1016.232
2023-05-22T03:08:51.146Z,1016.234
2023-05-22T03:09:21.116Z,1016.227
2023-05-22T03:09:51.132Z,1016.234
2023-05-22T03:10:21.123Z,1016.232
2023-05-22T03:10:51.123Z,1016.242
2023-05-22T03:11:21.130Z,1016.248
2023-05-22T03:11:51.117Z,1016.256
2023-05-22T03:12:21.120Z,1016.271
2023-05-22T03:12:51.115Z,1016.3
2023-05-22T03:13:21.127Z,1016.309
2023-05-22T03:13:51.119Z,1016.313
2023-05-22T03:14:21.127Z,1016.32
2023-05-22T03:14:51.136Z,1016.32
2023-05-22T03:15:21.123Z,1016.326
2023-05-22T03:15:51.174Z,1016.334
2023-05-22T03:16:21.148Z,1016.33
2023-05-22T03:16:51.200Z,1016.311
2023-05-22T03:17:21.120Z,1016.311
2023-05-22T03:17:51.170Z,1016.301
2023-05-22T03:18:21.123Z,1016.305
2023-05-22T03:18:51.165Z,1016.297
2023-05-22T03:19:21.194Z,1016.293
2023-05-22T03:19:51.124Z,1016.292
2023-05-22T03:20:21.128Z,1016.291
2023-05-22T03:20:51.121Z,1016.28
2023-05-22T03:21:21.125Z,1016.28
2023-05-22T03:21:51.121Z,1016.28
2023-05-22T03:22:21.119Z,1016.27
2023-05-22T03:22:51.126Z,1016.257
2023-05-22T03:23:21.131Z,1016.241
2023-05-22T03:23:51.126Z,1016.237
2023-05-22T03:24:21.154Z,1016.237
2023-05-22T03:24:51.133Z,1016.246
2023-05-22T03:25:21.126Z,1016.25
2023-05-22T03:25:51.132Z,1016.245
2023-05-22T03:26:21.133Z,1016.252
2023-05-22T03:26:51.140Z,1016.259
2023-05-22T03:27:21.124Z,1016.255
2023-05-22T03:27:51.127Z,1016.252
2023-05-22T03:28:21.124Z,1016.247
2023-05-22T03:28:51.171Z,1016.265
2023-05-22T03:29:21.220Z,1016.275
2023-05-22T03:29:51.133Z,1016.272
2023-05-22T03:30:21.131Z,1016.269
2023-05-22T03:30:51.133Z,1016.269
2023-05-22T03:31:21.141Z,1016.259
2023-05-22T03:31:51.126Z,1016.251
2023-05-22T03:32:21.134Z,1016.249
2023-05-22T03:32:51.159Z,1016.239
2023-05-22T03:33:21.144Z,1016.235
2023-05-22T03:33:51.186Z,1016.233
2023-05-22T03:34:21.135Z,1016.225
2023-05-22T03:34:51.131Z,1016.216
2023-05-22T03:35:21.126Z,1016.205
2023-05-22T03:35:51.128Z,1016.194
2023-05-22T03:36:21.137Z,1016.183
2023-05-22T03:36:51.142Z,1016.175
2023-05-22T03:37:21.134Z,1016.167
2023-05-22T03:37:51.135Z,1016.166
2023-05-22T03:38:21.132Z,1016.166
2023-05-22T03:38:51.136Z,1016.164
2023-05-22T03:39:21.133Z,1016.153
2023-05-22T03:39:51.141Z,1016.155
2023-05-22T03:40:21.137Z,1016.16
2023-05-22T03:40:51.138Z,1016.154
2023-05-22T03:41:21.141Z,1016.163
2023-05-22T03:41:51.142Z,1016.167
2023-05-22T03:42:21.142Z,1016.169
2023-05-22T03:42:51.137Z,1016.203
2023-05-22T03:43:21.145Z,1016.218
2023-05-22T03:43:51.140Z,1016.225
2023-05-22T03:44:21.145Z,1016.241
2023-05-22T03:44:51.135Z,1016.257
2023-05-22T03:45:21.161Z,1016.263
2023-05-22T03:45:51.152Z,1016.268
2023-05-22T03:46:21.219Z,1016.269
2023-05-22T03:46:51.140Z,1016.262
2023-05-22T03:47:21.138Z,1016.253
2023-05-22T03:47:51.151Z,1016.261
2023-05-22T03:48:21.132Z,1016.261
2023-05-22T03:48:51.154Z,1016.254
2023-05-22T03:49:21.137Z,1016.247
2023-05-22T03:49:51.138Z,1016.229
2023-05-22T03:50:21.141Z,1016.228
2023-05-22T03:50:51.134Z,1016.211
2023-05-22T03:51:21.132Z,1016.195
2023-05-22T03:51:51.139Z,1016.195
2023-05-22T03:52:21.141Z,1016.18
2023-05-22T03:52:51.135Z,1016.174
2023-05-22T03:53:21.145Z,1016.173
2023-05-22T03:53:51.138Z,1016.16
2023-05-22T03:54:21.137Z,1016.157
2023-05-22T03:54:51.179Z,1016.156
2023-05-22T03:55:21.142Z,1016.155
2023-05-22T03:55:51.137Z,1016.161
2023-05-22T03:56:21.144Z,1016.162
2023-05-22T03:56:51.143Z,1016.15
2023-05-22T03:57:21.140Z,1016.155
2023-05-22T03:57:51.138Z,1016.161
2023-05-22T03:58:21.142Z,1016.175
2023-05-22T03:58:51.151Z,1016.188
2023-05-22T03:59:21.137Z,1016.202
2023-05-22T03:59:51.136Z,1016.193
2023-05-22T04:00:21.139Z,1016.177
2023-05-22T04:00:51.140Z,1016.169
2023-05-22T04:01:21.137Z,1016.165
2023-05-22T04:01:51.153Z,1016.169
2023-05-22T04:02:21.316Z,1016.171
2023-05-22T04:02:51.228Z,1016.142
2023-05-22T04:03:21.271Z,1016.124
2023-05-22T04:03:51.138Z,1016.102
2023-05-22T04:04:21.134Z,1016.084
2023-05-22T04:04:51.169Z,1016.073
2023-05-22T04:05:21.210Z,1016.054
2023-05-22T04:05:51.147Z,1016.035
2023-05-22T04:06:21.149Z,1016.025
2023-05-22T04:06:51.142Z,1016.014
2023-05-22T04:07:21.141Z,1016.003
2023-05-22T04:07:51.145Z,1015.994
2023-05-22T04:08:21.140Z,1015.992
2023-05-22T04:08:51.147Z,1015.99
2023-05-22T04:09:21.148Z,1015.991
2023-05-22T04:09:51.146Z,1015.978
2023-05-22T04:10:21.150Z,1015.987
2023-05-22T04:10:51.144Z,1015.987
2023-05-22T04:11:21.139Z,1015.994
2023-05-22T04:11:51.154Z,1016.002
2023-05-22T04:12:21.145Z,1016.019
2023-05-22T04:12:51.165Z,1016.027
2023-05-22T04:13:21.145Z,1016.025
2023-05-22T04:13:51.160Z,1016.019
2023-05-22T04:14:21.157Z,1016.018
2023-05-22T04:14:51.148Z,1016.026
2023-05-22T04:15:21.159Z,1016.035
2023-05-22T04:15:51.158Z,1016.024
2023-05-22T04:16:21.188Z,1016.015
2023-05-22T04:16:51.147Z,1016.012
2023-05-22T04:17:21.153Z,1016
2023-05-22T04:17:51.163Z,1015.987
2023-05-22T04:18:21.154Z,1015.991
2023-05-22T04:18:51.199Z,1015.983
2023-05-22T04:19:21.186Z,1015.973
2023-05-22T04:19:51.218Z,1015.965
2023-05-22T04:20:21.158Z,1015.959
2023-05-22T04:20:51.139Z,1015.95
2023-05-22T04:21:21.161Z,1015.951
2023-05-22T04:21:51.146Z,1015.958
2023-05-22T04:22:21.143Z,1015.952
2023-05-22T04:22:51.138Z,1015.954
2023-05-22T04:23:21.141Z,1015.952
2023-05-22T04:23:51.138Z,1015.948
2023-05-22T04:24:21.140Z,1015.938
2023-05-22T04:24:51.140Z,1015.932
2023-05-22T04:25:21.137Z,1015.934
2023-05-22T04:25:51.145Z,1015.931
2023-05-22T04:26:21.148Z,1015.931
2023-05-22T04:26:51.142Z,1015.93
2023-05-22T04:27:21.140Z,1015.923
2023-05-22T04:27:51.149Z,1015.922
2023-05-22T04:28:21.143Z,1015.908
2023-05-22T04:28:51.141Z,1015.915
2023-05-22T04:29:21.141Z,1015.915
2023-05-22T04:29:51.165Z,1015.922
2023-05-22T04:30:21.141Z,1015.926
2023-05-22T04:30:51.168Z,1015.939
2023-05-22T04:31:21.179Z,1015.948
2023-05-22T04:31:51.143Z,1015.947
2023-05-22T04:32:21.147Z,1015.934
2023-05-22T04:32:51.253Z,1015.91
2023-05-22T04:33:21.149Z,1015.886
2023-05-22T04:33:51.150Z,1015.876
2023-05-22T04:34:21.149Z,1015.856
2023-05-22T04:34:51.230Z,1015.83
2023-05-22T04:35:21.152Z,1015.823
2023-05-22T04:35:51.164Z,1015.821
2023-05-22T04:36:21.150Z,1015.817
2023-05-22T04:36:51.159Z,1015.826
2023-05-22T04:37:21.148Z,1015.835
2023-05-22T04:37:51.146Z,1015.822
2023-05-22T04:38:21.151Z,1015.809
2023-05-22T04:38:51.157Z,1015.798
2023-05-22T04:39:21.146Z,1015.781
2023-05-22T04:39:51.146Z,1015.779
2023-05-22T04:40:21.155Z,1015.748
2023-05-22T04:40:51.150Z,1015.728
2023-05-22T04:41:22.482Z,1015.731
2023-05-22T04:41:51.154Z,1015.724
2023-05-22T04:42:21.150Z,1015.744
2023-05-22T04:42:51.148Z,1015.763
2023-05-22T04:43:21.160Z,1015.787
2023-05-22T04:43:51.152Z,1015.815
2023-05-22T04:44:21.147Z,1015.819
2023-05-22T04:44:51.153Z,1015.829
2023-05-22T04:45:21.155Z,1015.836
2023-05-22T04:45:51.155Z,1015.839
2023-05-22T04:46:21.227Z,1015.841
2023-05-22T04:46:51.200Z,1015.83
2023-05-22T04:47:21.186Z,1015.842
2023-05-22T04:47:51.205Z,1015.842
2023-05-22T04:48:21.164Z,1015.84
2023-05-22T04:48:51.180Z,1015.834
2023-05-22T04:49:21.154Z,1015.826
2023-05-22T04:49:51.152Z,1015.833
2023-05-22T04:50:21.154Z,1015.823
2023-05-22T04:50:51.151Z,1015.813
2023-05-22T04:51:21.159Z,1015.808
2023-05-22T04:51:51.174Z,1015.812
2023-05-22T04:52:21.154Z,1015.811
2023-05-22T04:52:51.157Z,1015.821
2023-05-22T04:53:21.164Z,1015.812
2023-05-22T04:53:51.156Z,1015.804
2023-05-22T04:54:21.154Z,1015.795
2023-05-22T04:54:51.159Z,1015.777
2023-05-22T04:55:21.160Z,1015.76
2023-05-22T04:55:51.172Z,1015.761
2023-05-22T04:56:31.875Z,1015.767
2023-05-22T04:56:52.208Z,1015.751
2023-05-22T04:57:21.174Z,1015.747
2023-05-22T04:57:51.175Z,1015.736
2023-05-22T04:58:21.156Z,1015.729
2023-05-22T04:58:51.187Z,1015.726
2023-05-22T04:59:21.160Z,1015.739
2023-05-22T04:59:51.166Z,1015.735
2023-05-22T05:00:21.170Z,1015.739
2023-05-22T05:00:51.180Z,1015.726
2023-05-22T05:01:21.204Z,1015.713
2023-05-22T05:01:51.162Z,1015.701
2023-05-22T05:02:21.208Z,1015.691
2023-05-22T05:02:51.206Z,1015.69
2023-05-22T05:03:21.222Z,1015.665
2023-05-22T05:03:51.201Z,1015.656
2023-05-22T05:04:21.160Z,1015.656
2023-05-22T05:04:51.163Z,1015.645
2023-05-22T05:05:21.165Z,1015.64
2023-05-22T05:05:51.164Z,1015.629
2023-05-22T05:06:21.167Z,1015.622
2023-05-22T05:06:51.167Z,1015.627
2023-05-22T05:07:21.162Z,1015.623
2023-05-22T05:07:51.174Z,1015.613
2023-05-22T05:08:21.173Z,1015.621
2023-05-22T05:08:51.167Z,1015.651
2023-05-22T05:09:21.165Z,1015.677
2023-05-22T05:09:51.165Z,1015.706
2023-05-22T05:10:21.167Z,1015.728
2023-05-22T05:10:51.165Z,1015.747
2023-05-22T05:11:21.166Z,1015.765
2023-05-22T05:11:51.169Z,1015.768
2023-05-22T05:12:21.168Z,1015.768
2023-05-22T05:12:51.173Z,1015.769
2023-05-22T05:13:21.162Z,1015.783
2023-05-22T05:13:51.171Z,1015.808
2023-05-22T05:14:21.163Z,1015.817
2023-05-22T05:14:51.166Z,1015.845
2023-05-22T05:15:21.166Z,1015.864
2023-05-22T05:15:51.161Z,1015.866
2023-05-22T05:16:21.225Z,1015.879
2023-05-22T05:16:51.223Z,1015.897
2023-05-22T05:17:21.168Z,1015.889
2023-05-22T05:17:51.270Z,1015.872
2023-05-22T05:18:21.175Z,1015.853
2023-05-22T05:18:51.191Z,1015.833
2023-05-22T05:19:21.220Z,1015.825
2023-05-22T05:19:51.171Z,1015.799
2023-05-22T05:20:21.170Z,1015.784
2023-05-22T05:20:51.163Z,1015.783
2023-05-22T05:21:21.172Z,1015.766
2023-05-22T05:21:51.167Z,1015.738
2023-05-22T05:22:21.198Z,1015.714
2023-05-22T05:22:51.173Z,1015.703
2023-05-22T05:23:21.168Z,1015.703
2023-05-22T05:23:51.176Z,1015.694
2023-05-22T05:24:21.177Z,1015.698
2023-05-22T05:24:51.185Z,1015.703
2023-05-22T05:25:21.168Z,1015.714
2023-05-22T05:25:51.168Z,1015.711
2023-05-22T05:26:21.175Z,1015.709
2023-05-22T05:26:51.217Z,1015.712
2023-05-22T05:27:21.175Z,1015.724
2023-05-22T05:27:51.182Z,1015.742
2023-05-22T05:28:21.166Z,1015.744
2023-05-22T05:28:51.169Z,1015.746
2023-05-22T05:29:21.173Z,1015.758
2023-05-22T05:29:51.172Z,1015.764
2023-05-22T05:30:21.179Z,1015.762
2023-05-22T05:30:51.184Z,1015.774
2023-05-22T05:31:21.175Z,1015.772
2023-05-22T05:31:51.187Z,1015.771
2023-05-22T05:32:21.305Z,1015.765
2023-05-22T05:32:51.221Z,1015.764
2023-05-22T05:33:21.171Z,1015.764
2023-05-22T05:33:51.180Z,1015.765
2023-05-22T05:34:21.171Z,1015.747
2023-05-22T05:34:51.173Z,1015.744
2023-05-22T05:35:21.184Z,1015.744
2023-05-22T05:35:51.213Z,1015.748
2023-05-22T05:36:21.174Z,1015.742
2023-05-22T05:36:51.173Z,1015.738
2023-05-22T05:37:21.177Z,1015.734
2023-05-22T05:37:51.178Z,1015.735
2023-05-22T05:38:21.181Z,1015.729
2023-05-22T05:38:51.181Z,1015.728
2023-05-22T05:39:21.188Z,1015.731
2023-05-22T05:39:51.196Z,1015.725
2023-05-22T05:40:21.186Z,1015.721
2023-05-22T05:40:51.190Z,1015.717
2023-05-22T05:41:21.179Z,1015.713
2023-05-22T05:41:51.185Z,1015.711
2023-05-22T05:42:21.184Z,1015.709
2023-05-22T05:42:51.182Z,1015.708
2023-05-22T05:43:21.211Z,1015.721
2023-05-22T05:43:51.200Z,1015.735
2023-05-22T05:44:21.180Z,1015.765
2023-05-22T05:44:51.178Z,1015.79
2023-05-22T05:45:21.178Z,1015.797
2023-05-22T05:45:51.219Z,1015.804
2023-05-22T05:46:21.206Z,1015.805
2023-05-22T05:46:51.192Z,1015.81
2023-05-22T05:47:21.272Z,1015.811
2023-05-22T05:47:51.212Z,1015.799
2023-05-22T05:48:21.186Z,1015.794
2023-05-22T05:48:51.185Z,1015.798
2023-05-22T05:49:21.183Z,1015.799
2023-05-22T05:49:51.198Z,1015.796
2023-05-22T05:50:21.216Z,1015.787
2023-05-22T05:50:51.217Z,1015.789
2023-05-22T05:51:21.185Z,1015.774
2023-05-22T05:51:51.189Z,1015.776
2023-05-22T05:52:21.183Z,1015.759
2023-05-22T05:52:51.181Z,1015.755
2023-05-22T05:53:21.187Z,1015.746